sensor_id;sensor_type;location;lat;lon;timestamp;temperature;humidity
76239;SHT30;65043;48.392;-4.472;2023-01-05T00:01:17;14.80;84.11
76239;SHT30;65043;48.392;-4.472;2023-01-05T00:03:42;14.80;84.04
76239;SHT30;65043;48.392;-4.472;2023-01-05T00:06:13;14.76;83.83
76239;SHT30;65043;48.392;-4.472;2023-01-05T00:08:40;14.76;83.98
76239;SHT30;65043;48.392;-4.472;2023-01-05T00:11:08;14.73;84.17
76239;SHT30;65043;48.392;-4.472;2023-01-05T00:13:52;14.73;84.32
76239;SHT30;65043;48.392;-4.472;2023-01-05T00:16:36;14.75;84.29
76239;SHT30;65043;48.392;-4.472;2023-01-05T00:19:20;14.75;83.96
76239;SHT30;65043;48.392;-4.472;2023-01-05T00:22:31;14.75;84.23
76239;SHT30;65043;48.392;-4.472;2023-01-05T00:25:04;14.73;84.24
76239;SHT30;65043;48.392;-4.472;2023-01-05T00:27:30;14.72;84.33
76239;SHT30;65043;48.392;-4.472;2023-01-05T00:29:56;14.70;84.53
76239;SHT30;65043;48.392;-4.472;2023-01-05T00:32:22;14.75;84.21
76239;SHT30;65043;48.392;-4.472;2023-01-05T00:34:48;14.73;84.40
76239;SHT30;65043;48.392;-4.472;2023-01-05T00:37:15;14.69;84.29
76239;SHT30;65043;48.392;-4.472;2023-01-05T00:39:41;14.68;84.49
76239;SHT30;65043;48.392;-4.472;2023-01-05T00:42:06;14.69;84.37
76239;SHT30;65043;48.392;-4.472;2023-01-05T00:44:32;14.72;84.47
76239;SHT30;65043;48.392;-4.472;2023-01-05T00:46:57;14.72;84.55
76239;SHT30;65043;48.392;-4.472;2023-01-05T00:49:22;14.72;84.51
76239;SHT30;65043;48.392;-4.472;2023-01-05T00:51:48;14.70;84.53
76239;SHT30;65043;48.392;-4.472;2023-01-05T00:54:13;14.75;84.35
76239;SHT30;65043;48.392;-4.472;2023-01-05T00:56:39;14.70;84.40
76239;SHT30;65043;48.392;-4.472;2023-01-05T00:59:04;14.72;84.39
76239;SHT30;65043;48.392;-4.472;2023-01-05T01:01:30;14.68;84.23
76239;SHT30;65043;48.392;-4.472;2023-01-05T01:03:55;14.66;84.24
76239;SHT30;65043;48.392;-4.472;2023-01-05T01:06:21;14.66;84.27
76239;SHT30;65043;48.392;-4.472;2023-01-05T01:08:47;14.66;84.33
76239;SHT30;65043;48.392;-4.472;2023-01-05T01:11:12;14.62;84.38
76239;SHT30;65043;48.392;-4.472;2023-01-05T01:13:41;14.60;84.47
76239;SHT30;65043;48.392;-4.472;2023-01-05T01:16:08;14.60;84.51
76239;SHT30;65043;48.392;-4.472;2023-01-05T01:18:33;14.56;84.60
76239;SHT30;65043;48.392;-4.472;2023-01-05T01:20:59;14.58;84.60
76239;SHT30;65043;48.392;-4.472;2023-01-05T01:23:24;14.58;84.62
76239;SHT30;65043;48.392;-4.472;2023-01-05T01:25:50;14.56;84.60
76239;SHT30;65043;48.392;-4.472;2023-01-05T01:28:15;14.58;84.55
76239;SHT30;65043;48.392;-4.472;2023-01-05T01:30:40;14.59;84.44
76239;SHT30;65043;48.392;-4.472;2023-01-05T01:33:06;14.58;84.50
76239;SHT30;65043;48.392;-4.472;2023-01-05T01:35:31;14.58;84.48
76239;SHT30;65043;48.392;-4.472;2023-01-05T01:37:57;14.56;84.37
76239;SHT30;65043;48.392;-4.472;2023-01-05T01:40:22;14.56;84.43
76239;SHT30;65043;48.392;-4.472;2023-01-05T01:42:48;14.55;84.59
76239;SHT30;65043;48.392;-4.472;2023-01-05T01:45:19;14.56;84.34
76239;SHT30;65043;48.392;-4.472;2023-01-05T01:47:57;14.52;84.51
76239;SHT30;65043;48.392;-4.472;2023-01-05T01:50:30;14.53;84.61
76239;SHT30;65043;48.392;-4.472;2023-01-05T01:53:04;14.53;84.64
76239;SHT30;65043;48.392;-4.472;2023-01-05T01:55:31;14.55;84.59
76239;SHT30;65043;48.392;-4.472;2023-01-05T01:57:58;14.55;84.47
76239;SHT30;65043;48.392;-4.472;2023-01-05T02:00:24;14.50;84.45
76239;SHT30;65043;48.392;-4.472;2023-01-05T02:02:53;14.50;84.47
76239;SHT30;65043;48.392;-4.472;2023-01-05T02:05:23;14.55;84.47
76239;SHT30;65043;48.392;-4.472;2023-01-05T02:07:49;14.52;84.38
76239;SHT30;65043;48.392;-4.472;2023-01-05T02:10:17;14.50;84.51
76239;SHT30;65043;48.392;-4.472;2023-01-05T02:13:15;14.50;84.59
76239;SHT30;65043;48.392;-4.472;2023-01-05T02:15:49;14.49;84.46
76239;SHT30;65043;48.392;-4.472;2023-01-05T02:24:24;14.49;84.48
76239;SHT30;65043;48.392;-4.472;2023-01-05T02:27:03;14.48;84.48
76239;SHT30;65043;48.392;-4.472;2023-01-05T02:32:28;14.45;84.56
76239;SHT30;65043;48.392;-4.472;2023-01-05T02:35:22;14.45;84.72
76239;SHT30;65043;48.392;-4.472;2023-01-05T02:38:08;14.45;84.37
76239;SHT30;65043;48.392;-4.472;2023-01-05T02:40:41;14.43;84.50
76239;SHT30;65043;48.392;-4.472;2023-01-05T02:43:10;14.46;84.46
76239;SHT30;65043;48.392;-4.472;2023-01-05T02:45:36;14.46;84.45
76239;SHT30;65043;48.392;-4.472;2023-01-05T02:48:01;14.39;84.40
76239;SHT30;65043;48.392;-4.472;2023-01-05T02:50:48;14.38;84.62
76239;SHT30;65043;48.392;-4.472;2023-01-05T02:53:17;14.41;84.67
76239;SHT30;65043;48.392;-4.472;2023-01-05T02:55:54;14.42;84.44
76239;SHT30;65043;48.392;-4.472;2023-01-05T02:58:22;14.41;84.48
76239;SHT30;65043;48.392;-4.472;2023-01-05T03:00:57;14.41;84.51
76239;SHT30;65043;48.392;-4.472;2023-01-05T03:03:43;14.43;84.53
76239;SHT30;65043;48.392;-4.472;2023-01-05T03:06:21;14.43;84.28
76239;SHT30;65043;48.392;-4.472;2023-01-05T03:08:53;14.45;84.38
76239;SHT30;65043;48.392;-4.472;2023-01-05T03:11:20;14.43;84.26
76239;SHT30;65043;48.392;-4.472;2023-01-05T03:14:15;14.42;84.43
76239;SHT30;65043;48.392;-4.472;2023-01-05T03:16:44;14.48;84.37
76239;SHT30;65043;48.392;-4.472;2023-01-05T03:19:14;14.48;84.15
76239;SHT30;65043;48.392;-4.472;2023-01-05T03:22:03;14.46;84.06
76239;SHT30;65043;48.392;-4.472;2023-01-05T03:24:48;14.48;84.03
76239;SHT30;65043;48.392;-4.472;2023-01-05T03:27:33;14.50;84.05
76239;SHT30;65043;48.392;-4.472;2023-01-05T03:30:17;14.50;83.78
76239;SHT30;65043;48.392;-4.472;2023-01-05T03:33:24;14.48;83.92
76239;SHT30;65043;48.392;-4.472;2023-01-05T03:36:11;14.46;83.98
76239;SHT30;65043;48.392;-4.472;2023-01-05T03:38:41;14.52;84.00
76239;SHT30;65043;48.392;-4.472;2023-01-05T03:41:09;14.50;83.97
76239;SHT30;65043;48.392;-4.472;2023-01-05T03:43:36;14.49;83.87
76239;SHT30;65043;48.392;-4.472;2023-01-05T03:46:12;14.53;83.69
76239;SHT30;65043;48.392;-4.472;2023-01-05T03:48:38;14.52;83.75
76239;SHT30;65043;48.392;-4.472;2023-01-05T03:51:04;14.52;83.99
76239;SHT30;65043;48.392;-4.472;2023-01-05T03:53:30;14.52;84.06
76239;SHT30;65043;48.392;-4.472;2023-01-05T03:55:55;14.53;83.83
76239;SHT30;65043;48.392;-4.472;2023-01-05T03:58:21;14.50;83.81
76239;SHT30;65043;48.392;-4.472;2023-01-05T04:00:46;14.49;83.88
76239;SHT30;65043;48.392;-4.472;2023-01-05T04:03:11;14.49;83.95
76239;SHT30;65043;48.392;-4.472;2023-01-05T04:05:37;14.50;83.93
76239;SHT30;65043;48.392;-4.472;2023-01-05T04:08:03;14.52;83.71
76239;SHT30;65043;48.392;-4.472;2023-01-05T04:10:28;14.52;83.76
76239;SHT30;65043;48.392;-4.472;2023-01-05T04:12:54;14.53;83.73
76239;SHT30;65043;48.392;-4.472;2023-01-05T04:15:19;14.55;83.67
76239;SHT30;65043;48.392;-4.472;2023-01-05T04:17:45;14.53;83.63
76239;SHT30;65043;48.392;-4.472;2023-01-05T04:20:10;14.53;83.69
76239;SHT30;65043;48.392;-4.472;2023-01-05T04:22:36;14.50;83.63
76239;SHT30;65043;48.392;-4.472;2023-01-05T04:25:02;14.52;83.71
76239;SHT30;65043;48.392;-4.472;2023-01-05T04:27:27;14.56;83.63
76239;SHT30;65043;48.392;-4.472;2023-01-05T04:29:53;14.52;83.58
76239;SHT30;65043;48.392;-4.472;2023-01-05T04:32:18;14.52;83.52
76239;SHT30;65043;48.392;-4.472;2023-01-05T04:34:44;14.49;83.61
76239;SHT30;65043;48.392;-4.472;2023-01-05T04:37:09;14.50;83.69
76239;SHT30;65043;48.392;-4.472;2023-01-05T04:39:34;14.50;83.66
76239;SHT30;65043;48.392;-4.472;2023-01-05T04:42:00;14.52;83.51
76239;SHT30;65043;48.392;-4.472;2023-01-05T04:44:25;14.48;83.60
76239;SHT30;65043;48.392;-4.472;2023-01-05T04:46:51;14.49;83.57
76239;SHT30;65043;48.392;-4.472;2023-01-05T04:49:17;14.46;83.70
76239;SHT30;65043;48.392;-4.472;2023-01-05T04:51:42;14.46;83.65
76239;SHT30;65043;48.392;-4.472;2023-01-05T04:54:08;14.43;83.70
76239;SHT30;65043;48.392;-4.472;2023-01-05T04:56:34;14.43;83.72
76239;SHT30;65043;48.392;-4.472;2023-01-05T04:58:59;14.43;83.71
76239;SHT30;65043;48.392;-4.472;2023-01-05T05:01:25;14.45;83.78
76239;SHT30;65043;48.392;-4.472;2023-01-05T05:03:51;14.45;83.62
76239;SHT30;65043;48.392;-4.472;2023-01-05T05:06:16;14.39;83.64
76239;SHT30;65043;48.392;-4.472;2023-01-05T05:08:42;14.39;83.74
76239;SHT30;65043;48.392;-4.472;2023-01-05T05:11:07;14.41;83.74
76239;SHT30;65043;48.392;-4.472;2023-01-05T05:13:33;14.43;83.68
76239;SHT30;65043;48.392;-4.472;2023-01-05T05:15:58;14.41;83.56
76239;SHT30;65043;48.392;-4.472;2023-01-05T05:18:24;14.45;83.66
76239;SHT30;65043;48.392;-4.472;2023-01-05T05:20:51;14.46;83.50
76239;SHT30;65043;48.392;-4.472;2023-01-05T05:23:17;14.45;83.54
76239;SHT30;65043;48.392;-4.472;2023-01-05T05:25:43;14.46;83.41
76239;SHT30;65043;48.392;-4.472;2023-01-05T05:28:09;14.43;83.32
76239;SHT30;65043;48.392;-4.472;2023-01-05T05:30:36;14.41;83.27
76239;SHT30;65043;48.392;-4.472;2023-01-05T05:33:01;14.42;83.42
76239;SHT30;65043;48.392;-4.472;2023-01-05T05:35:27;14.43;83.32
76239;SHT30;65043;48.392;-4.472;2023-01-05T05:37:52;14.45;83.17
76239;SHT30;65043;48.392;-4.472;2023-01-05T05:40:18;14.46;83.18
76239;SHT30;65043;48.392;-4.472;2023-01-05T05:42:43;14.46;83.15
76239;SHT30;65043;48.392;-4.472;2023-01-05T05:45:09;14.49;83.01
76239;SHT30;65043;48.392;-4.472;2023-01-05T05:47:34;14.48;82.77
76239;SHT30;65043;48.392;-4.472;2023-01-05T05:50:00;14.52;82.86
76239;SHT30;65043;48.392;-4.472;2023-01-05T05:52:25;14.50;82.72
76239;SHT30;65043;48.392;-4.472;2023-01-05T05:54:51;14.49;82.76
76239;SHT30;65043;48.392;-4.472;2023-01-05T05:57:16;14.48;82.52
76239;SHT30;65043;48.392;-4.472;2023-01-05T05:59:42;14.50;82.05
76239;SHT30;65043;48.392;-4.472;2023-01-05T06:02:07;14.49;82.37
76239;SHT30;65043;48.392;-4.472;2023-01-05T06:04:33;14.48;82.27
76239;SHT30;65043;48.392;-4.472;2023-01-05T06:06:58;14.49;82.22
76239;SHT30;65043;48.392;-4.472;2023-01-05T06:09:24;14.50;81.79
76239;SHT30;65043;48.392;-4.472;2023-01-05T06:11:49;14.49;82.17
76239;SHT30;65043;48.392;-4.472;2023-01-05T06:14:15;14.45;82.17
76239;SHT30;65043;48.392;-4.472;2023-01-05T06:16:40;14.48;82.16
76239;SHT30;65043;48.392;-4.472;2023-01-05T06:19:05;14.48;82.09
76239;SHT30;65043;48.392;-4.472;2023-01-05T06:21:31;14.46;82.20
76239;SHT30;65043;48.392;-4.472;2023-01-05T06:23:57;14.50;81.42
76239;SHT30;65043;48.392;-4.472;2023-01-05T06:26:22;14.46;81.52
76239;SHT30;65043;48.392;-4.472;2023-01-05T06:28:48;14.43;81.87
76239;SHT30;65043;48.392;-4.472;2023-01-05T06:31:13;14.45;81.61
76239;SHT30;65043;48.392;-4.472;2023-01-05T06:33:39;14.45;81.65
76239;SHT30;65043;48.392;-4.472;2023-01-05T06:36:04;14.41;81.64
76239;SHT30;65043;48.392;-4.472;2023-01-05T06:38:30;14.41;81.90
76239;SHT30;65043;48.392;-4.472;2023-01-05T06:40:55;14.38;81.69
76239;SHT30;65043;48.392;-4.472;2023-01-05T06:43:22;14.38;81.89
76239;SHT30;65043;48.392;-4.472;2023-01-05T06:45:48;14.36;81.79
76239;SHT30;65043;48.392;-4.472;2023-01-05T06:48:14;14.33;81.73
76239;SHT30;65043;48.392;-4.472;2023-01-05T06:50:39;14.36;81.53
76239;SHT30;65043;48.392;-4.472;2023-01-05T06:53:05;14.38;81.58
76239;SHT30;65043;48.392;-4.472;2023-01-05T06:55:30;14.33;81.43
76239;SHT30;65043;48.392;-4.472;2023-01-05T06:57:56;14.32;81.37
76239;SHT30;65043;48.392;-4.472;2023-01-05T07:00:21;14.35;80.99
76239;SHT30;65043;48.392;-4.472;2023-01-05T07:02:47;14.38;81.30
76239;SHT30;65043;48.392;-4.472;2023-01-05T07:05:13;14.36;81.07
76239;SHT30;65043;48.392;-4.472;2023-01-05T07:07:38;14.38;80.85
76239;SHT30;65043;48.392;-4.472;2023-01-05T07:10:04;14.38;81.09
76239;SHT30;65043;48.392;-4.472;2023-01-05T07:12:30;14.38;80.55
76239;SHT30;65043;48.392;-4.472;2023-01-05T07:14:55;14.36;80.78
76239;SHT30;65043;48.392;-4.472;2023-01-05T07:17:21;14.36;80.87
76239;SHT30;65043;48.392;-4.472;2023-01-05T07:19:47;14.38;80.83
76239;SHT30;65043;48.392;-4.472;2023-01-05T07:22:12;14.36;80.45
76239;SHT30;65043;48.392;-4.472;2023-01-05T07:24:38;14.35;80.89
76239;SHT30;65043;48.392;-4.472;2023-01-05T07:27:03;14.36;80.95
76239;SHT30;65043;48.392;-4.472;2023-01-05T07:29:29;14.39;81.09
76239;SHT30;65043;48.392;-4.472;2023-01-05T07:31:54;14.35;80.11
76239;SHT30;65043;48.392;-4.472;2023-01-05T07:34:21;14.32;80.56
76239;SHT30;65043;48.392;-4.472;2023-01-05T07:36:47;14.31;80.86
76239;SHT30;65043;48.392;-4.472;2023-01-05T07:39:14;14.32;80.48
76239;SHT30;65043;48.392;-4.472;2023-01-05T07:41:39;14.33;80.89
76239;SHT30;65043;48.392;-4.472;2023-01-05T07:44:05;14.35;80.39
76239;SHT30;65043;48.392;-4.472;2023-01-05T07:46:30;14.32;80.58
76239;SHT30;65043;48.392;-4.472;2023-01-05T07:48:56;14.32;80.68
76239;SHT30;65043;48.392;-4.472;2023-01-05T07:51:21;14.29;80.88
76239;SHT30;65043;48.392;-4.472;2023-01-05T07:53:47;14.32;80.65
76239;SHT30;65043;48.392;-4.472;2023-01-05T07:56:13;14.32;81.09
76239;SHT30;65043;48.392;-4.472;2023-01-05T07:58:39;14.32;80.57
76239;SHT30;65043;48.392;-4.472;2023-01-05T08:01:07;14.28;80.40
76239;SHT30;65043;48.392;-4.472;2023-01-05T08:03:34;14.25;80.34
76239;SHT30;65043;48.392;-4.472;2023-01-05T08:06:26;14.26;80.88
76239;SHT30;65043;48.392;-4.472;2023-01-05T08:08:52;14.31;80.60
76239;SHT30;65043;48.392;-4.472;2023-01-05T08:11:18;14.26;80.21
76239;SHT30;65043;48.392;-4.472;2023-01-05T08:13:45;14.29;80.76
76239;SHT30;65043;48.392;-4.472;2023-01-05T08:16:28;14.29;80.58
76239;SHT30;65043;48.392;-4.472;2023-01-05T08:18:54;14.31;80.46
76239;SHT30;65043;48.392;-4.472;2023-01-05T08:21:20;14.31;80.77
76239;SHT30;65043;48.392;-4.472;2023-01-05T08:23:45;14.32;80.89
76239;SHT30;65043;48.392;-4.472;2023-01-05T08:26:16;14.32;80.93
76239;SHT30;65043;48.392;-4.472;2023-01-05T08:28:41;14.35;80.82
76239;SHT30;65043;48.392;-4.472;2023-01-05T08:31:14;14.35;80.98
76239;SHT30;65043;48.392;-4.472;2023-01-05T08:33:40;14.32;80.96
76239;SHT30;65043;48.392;-4.472;2023-01-05T08:36:11;14.32;81.13
76239;SHT30;65043;48.392;-4.472;2023-01-05T08:38:37;14.31;81.09
76239;SHT30;65043;48.392;-4.472;2023-01-05T08:41:03;14.31;81.16
76239;SHT30;65043;48.392;-4.472;2023-01-05T08:43:29;14.31;81.32
76239;SHT30;65043;48.392;-4.472;2023-01-05T08:45:54;14.32;81.30
76239;SHT30;65043;48.392;-4.472;2023-01-05T08:48:21;14.33;81.39
76239;SHT30;65043;48.392;-4.472;2023-01-05T08:50:46;14.38;80.93
76239;SHT30;65043;48.392;-4.472;2023-01-05T08:53:11;14.35;81.12
76239;SHT30;65043;48.392;-4.472;2023-01-05T08:55:37;14.36;80.98
76239;SHT30;65043;48.392;-4.472;2023-01-05T08:58:03;14.35;81.15
76239;SHT30;65043;48.392;-4.472;2023-01-05T09:00:30;14.33;81.07
76239;SHT30;65043;48.392;-4.472;2023-01-05T09:02:55;14.33;81.08
76239;SHT30;65043;48.392;-4.472;2023-01-05T09:05:21;14.32;81.30
76239;SHT30;65043;48.392;-4.472;2023-01-05T09:07:47;14.36;80.95
76239;SHT30;65043;48.392;-4.472;2023-01-05T09:10:12;14.31;80.90
76239;SHT30;65043;48.392;-4.472;2023-01-05T09:12:37;14.31;80.72
76239;SHT30;65043;48.392;-4.472;2023-01-05T09:15:04;14.31;81.18
76239;SHT30;65043;48.392;-4.472;2023-01-05T09:17:31;14.31;81.00
76239;SHT30;65043;48.392;-4.472;2023-01-05T09:19:57;14.33;80.99
76239;SHT30;65043;48.392;-4.472;2023-01-05T09:22:22;14.38;80.92
76239;SHT30;65043;48.392;-4.472;2023-01-05T09:24:48;14.36;80.64
76239;SHT30;65043;48.392;-4.472;2023-01-05T09:27:13;14.32;80.62
76239;SHT30;65043;48.392;-4.472;2023-01-05T09:29:39;14.33;80.89
76239;SHT30;65043;48.392;-4.472;2023-01-05T09:32:05;14.31;80.85
76239;SHT30;65043;48.392;-4.472;2023-01-05T09:34:31;14.35;80.81
76239;SHT30;65043;48.392;-4.472;2023-01-05T09:36:56;14.33;80.66
76239;SHT30;65043;48.392;-4.472;2023-01-05T09:39:22;14.33;80.99
76239;SHT30;65043;48.392;-4.472;2023-01-05T09:41:54;14.35;80.71
76239;SHT30;65043;48.392;-4.472;2023-01-05T09:44:45;14.35;80.97
76239;SHT30;65043;48.392;-4.472;2023-01-05T09:49:45;14.39;80.79
76239;SHT30;65043;48.392;-4.472;2023-01-05T09:52:13;14.39;80.93
76239;SHT30;65043;48.392;-4.472;2023-01-05T09:54:39;14.39;80.87
76239;SHT30;65043;48.392;-4.472;2023-01-05T09:57:12;14.38;81.01
76239;SHT30;65043;48.392;-4.472;2023-01-05T09:59:50;14.39;80.96
76239;SHT30;65043;48.392;-4.472;2023-01-05T10:02:28;14.39;81.11
76239;SHT30;65043;48.392;-4.472;2023-01-05T10:04:57;14.41;81.01
76239;SHT30;65043;48.392;-4.472;2023-01-05T10:07:41;14.36;80.45
76239;SHT30;65043;48.392;-4.472;2023-01-05T10:13:02;14.36;80.64
76239;SHT30;65043;48.392;-4.472;2023-01-05T10:15:43;14.36;80.62
76239;SHT30;65043;48.392;-4.472;2023-01-05T10:18:16;14.38;80.44
76239;SHT30;65043;48.392;-4.472;2023-01-05T10:34:59;14.32;80.60
76239;SHT30;65043;48.392;-4.472;2023-01-05T10:40:09;14.29;80.48
76239;SHT30;65043;48.392;-4.472;2023-01-05T10:43:14;14.28;80.45
76239;SHT30;65043;48.392;-4.472;2023-01-05T10:45:45;14.33;80.60
76239;SHT30;65043;48.392;-4.472;2023-01-05T10:48:16;14.32;80.60
76239;SHT30;65043;48.392;-4.472;2023-01-05T10:50:44;14.33;80.60
76239;SHT30;65043;48.392;-4.472;2023-01-05T10:53:20;14.39;80.65
76239;SHT30;65043;48.392;-4.472;2023-01-05T10:58:23;14.42;80.43
76239;SHT30;65043;48.392;-4.472;2023-01-05T11:00:49;14.46;80.51
76239;SHT30;65043;48.392;-4.472;2023-01-05T11:03:18;14.46;80.32
76239;SHT30;65043;48.392;-4.472;2023-01-05T11:05:47;14.53;80.33
76239;SHT30;65043;48.392;-4.472;2023-01-05T11:08:16;14.58;80.30
76239;SHT30;65043;48.392;-4.472;2023-01-05T11:10:56;14.56;79.93
76239;SHT30;65043;48.392;-4.472;2023-01-05T11:16:16;14.58;80.01
76239;SHT30;65043;48.392;-4.472;2023-01-05T11:18:56;14.60;79.98
76239;SHT30;65043;48.392;-4.472;2023-01-05T11:21:25;14.60;79.94
76239;SHT30;65043;48.392;-4.472;2023-01-05T11:23:55;14.56;79.82
76239;SHT30;65043;48.392;-4.472;2023-01-05T11:28:57;14.49;79.70
76239;SHT30;65043;48.392;-4.472;2023-01-05T11:31:33;14.48;80.01
76239;SHT30;65043;48.392;-4.472;2023-01-05T11:34:07;14.48;79.96
76239;SHT30;65043;48.392;-4.472;2023-01-05T11:36:34;14.49;79.94
76239;SHT30;65043;48.392;-4.472;2023-01-05T11:38:59;14.46;79.81
76239;SHT30;65043;48.392;-4.472;2023-01-05T11:41:24;14.46;80.15
76239;SHT30;65043;48.392;-4.472;2023-01-05T11:43:52;14.48;80.06
76239;SHT30;65043;48.392;-4.472;2023-01-05T11:46:18;14.46;80.09
76239;SHT30;65043;48.392;-4.472;2023-01-05T11:48:53;14.45;79.88
76239;SHT30;65043;48.392;-4.472;2023-01-05T11:51:39;14.45;80.07
76239;SHT30;65043;48.392;-4.472;2023-01-05T11:54:32;14.49;80.35
76239;SHT30;65043;48.392;-4.472;2023-01-05T11:57:18;14.53;80.21
76239;SHT30;65043;48.392;-4.472;2023-01-05T11:59:45;14.58;79.97
76239;SHT30;65043;48.392;-4.472;2023-01-05T12:10:03;14.52;79.93
76239;SHT30;65043;48.392;-4.472;2023-01-05T12:21:26;14.46;80.09
76239;SHT30;65043;48.392;-4.472;2023-01-05T12:30:05;14.45;80.16
76239;SHT30;65043;48.392;-4.472;2023-01-05T12:32:48;14.43;80.28
76239;SHT30;65043;48.392;-4.472;2023-01-05T12:38:21;14.43;80.11
76239;SHT30;65043;48.392;-4.472;2023-01-05T12:49:22;14.41;79.64
76239;SHT30;65043;48.392;-4.472;2023-01-05T12:56:58;14.48;79.78
76239;SHT30;65043;48.392;-4.472;2023-01-05T12:59:31;14.52;79.85
76239;SHT30;65043;48.392;-4.472;2023-01-05T13:05:00;14.58;79.95
76239;SHT30;65043;48.392;-4.472;2023-01-05T13:12:56;14.63;79.69
76239;SHT30;65043;48.392;-4.472;2023-01-05T13:15:38;14.70;79.62
76239;SHT30;65043;48.392;-4.472;2023-01-05T13:18:14;14.65;79.71
76239;SHT30;65043;48.392;-4.472;2023-01-05T13:20:59;14.62;79.64
76239;SHT30;65043;48.392;-4.472;2023-01-05T13:23:29;14.60;79.90
76239;SHT30;65043;48.392;-4.472;2023-01-05T13:26:04;14.63;79.83
76239;SHT30;65043;48.392;-4.472;2023-01-05T13:28:30;14.63;79.51
76239;SHT30;65043;48.392;-4.472;2023-01-05T13:50:15;14.56;78.13
76239;SHT30;65043;48.392;-4.472;2023-01-05T13:53:25;14.58;77.90
76239;SHT30;65043;48.392;-4.472;2023-01-05T13:55:57;14.58;77.38
76239;SHT30;65043;48.392;-4.472;2023-01-05T13:58:42;14.59;77.04
76239;SHT30;65043;48.392;-4.472;2023-01-05T14:01:19;14.62;77.23
76239;SHT30;65043;48.392;-4.472;2023-01-05T14:03:57;14.62;77.43
76239;SHT30;65043;48.392;-4.472;2023-01-05T14:06:26;14.65;77.54
76239;SHT30;65043;48.392;-4.472;2023-01-05T14:08:56;14.63;77.48
76239;SHT30;65043;48.392;-4.472;2023-01-05T14:11:25;14.66;77.86
76239;SHT30;65043;48.392;-4.472;2023-01-05T14:19:13;14.75;77.63
76239;SHT30;65043;48.392;-4.472;2023-01-05T14:27:04;14.94;77.41
76239;SHT30;65043;48.392;-4.472;2023-01-05T14:32:29;14.99;77.16
76239;SHT30;65043;48.392;-4.472;2023-01-05T14:34:56;14.99;77.13
76239;SHT30;65043;48.392;-4.472;2023-01-05T14:37:28;15.00;77.08
76239;SHT30;65043;48.392;-4.472;2023-01-05T14:39:57;15.00;77.07
76239;SHT30;65043;48.392;-4.472;2023-01-05T14:42:35;14.97;77.12
76239;SHT30;65043;48.392;-4.472;2023-01-05T14:45:06;15.03;77.35
76239;SHT30;65043;48.392;-4.472;2023-01-05T14:47:46;15.06;77.34
76239;SHT30;65043;48.392;-4.472;2023-01-05T14:50:44;15.04;77.75
76239;SHT30;65043;48.392;-4.472;2023-01-05T14:53:52;15.07;77.25
76239;SHT30;65043;48.392;-4.472;2023-01-05T15:03:56;14.94;77.53
76239;SHT30;65043;48.392;-4.472;2023-01-05T15:30:48;14.53;78.52
76239;SHT30;65043;48.392;-4.472;2023-01-05T15:33:36;14.50;78.81
76239;SHT30;65043;48.392;-4.472;2023-01-05T15:36:05;14.48;78.98
76239;SHT30;65043;48.392;-4.472;2023-01-05T15:38:45;14.41;79.16
76239;SHT30;65043;48.392;-4.472;2023-01-05T15:41:13;14.35;79.24
76239;SHT30;65043;48.392;-4.472;2023-01-05T15:43:41;14.39;79.53
76239;SHT30;65043;48.392;-4.472;2023-01-05T15:46:07;14.38;79.44
76239;SHT30;65043;48.392;-4.472;2023-01-05T15:48:40;14.36;79.58
76239;SHT30;65043;48.392;-4.472;2023-01-05T15:51:06;14.35;79.63
76239;SHT30;65043;48.392;-4.472;2023-01-05T15:56:00;14.41;79.44
76239;SHT30;65043;48.392;-4.472;2023-01-05T15:58:28;14.39;79.29
76239;SHT30;65043;48.392;-4.472;2023-01-05T16:01:03;14.39;79.43
76239;SHT30;65043;48.392;-4.472;2023-01-05T16:03:37;14.38;79.39
76239;SHT30;65043;48.392;-4.472;2023-01-05T16:06:22;14.41;79.45
76239;SHT30;65043;48.392;-4.472;2023-01-05T16:08:51;14.43;79.28
76239;SHT30;65043;48.392;-4.472;2023-01-05T16:11:35;14.41;79.31
76239;SHT30;65043;48.392;-4.472;2023-01-05T16:16:39;14.33;79.15
76239;SHT30;65043;48.392;-4.472;2023-01-05T16:21:56;14.26;79.36
76239;SHT30;65043;48.392;-4.472;2023-01-05T16:26:54;14.21;79.42
76239;SHT30;65043;48.392;-4.472;2023-01-05T16:29:25;14.25;79.56
76239;SHT30;65043;48.392;-4.472;2023-01-05T16:31:54;14.26;79.48
76239;SHT30;65043;48.392;-4.472;2023-01-05T16:34:21;14.33;79.15
76239;SHT30;65043;48.392;-4.472;2023-01-05T16:37:05;14.31;79.19
76239;SHT30;65043;48.392;-4.472;2023-01-05T16:39:37;14.25;79.36
76239;SHT30;65043;48.392;-4.472;2023-01-05T16:42:24;14.25;79.37
76239;SHT30;65043;48.392;-4.472;2023-01-05T16:45:30;14.20;79.50
76239;SHT30;65043;48.392;-4.472;2023-01-05T16:47:57;14.14;79.57
76239;SHT30;65043;48.392;-4.472;2023-01-05T16:53:03;14.10;79.91
76239;SHT30;65043;48.392;-4.472;2023-01-05T16:55:32;14.12;79.93
76239;SHT30;65043;48.392;-4.472;2023-01-05T16:57:59;14.11;79.64
76239;SHT30;65043;48.392;-4.472;2023-01-05T17:02:52;14.12;79.69
76239;SHT30;65043;48.392;-4.472;2023-01-05T17:05:23;14.14;79.35
76239;SHT30;65043;48.392;-4.472;2023-01-05T17:08:19;14.15;79.65
76239;SHT30;65043;48.392;-4.472;2023-01-05T17:10:45;14.17;79.33
76239;SHT30;65043;48.392;-4.472;2023-01-05T17:13:14;14.17;79.29
76239;SHT30;65043;48.392;-4.472;2023-01-05T17:15:43;14.18;79.22
76239;SHT30;65043;48.392;-4.472;2023-01-05T17:18:29;14.18;79.28
76239;SHT30;65043;48.392;-4.472;2023-01-05T17:20:56;14.18;79.12
76239;SHT30;65043;48.392;-4.472;2023-01-05T17:23:33;14.11;79.27
76239;SHT30;65043;48.392;-4.472;2023-01-05T17:26:03;14.12;79.93
76239;SHT30;65043;48.392;-4.472;2023-01-05T17:28:31;14.20;79.89
76239;SHT30;65043;48.392;-4.472;2023-01-05T17:30:56;14.21;79.95
76239;SHT30;65043;48.392;-4.472;2023-01-05T17:33:22;14.24;79.76
76239;SHT30;65043;48.392;-4.472;2023-01-05T17:35:48;14.25;79.52
76239;SHT30;65043;48.392;-4.472;2023-01-05T17:38:14;14.25;79.33
76239;SHT30;65043;48.392;-4.472;2023-01-05T17:40:40;14.25;79.19
76239;SHT30;65043;48.392;-4.472;2023-01-05T17:43:06;14.24;79.31
76239;SHT30;65043;48.392;-4.472;2023-01-05T17:45:32;14.24;79.41
76239;SHT30;65043;48.392;-4.472;2023-01-05T17:47:58;14.22;79.37
76239;SHT30;65043;48.392;-4.472;2023-01-05T17:50:30;14.20;79.48
76239;SHT30;65043;48.392;-4.472;2023-01-05T17:52:57;14.22;79.55
76239;SHT30;65043;48.392;-4.472;2023-01-05T17:55:23;14.24;79.55
76239;SHT30;65043;48.392;-4.472;2023-01-05T17:57:49;14.24;79.45
76239;SHT30;65043;48.392;-4.472;2023-01-05T18:00:16;14.24;79.69
76239;SHT30;65043;48.392;-4.472;2023-01-05T18:02:42;14.24;79.58
76239;SHT30;65043;48.392;-4.472;2023-01-05T18:05:10;14.25;79.89
76239;SHT30;65043;48.392;-4.472;2023-01-05T18:07:36;14.28;79.85
76239;SHT30;65043;48.392;-4.472;2023-01-05T18:10:04;14.25;79.84
76239;SHT30;65043;48.392;-4.472;2023-01-05T18:12:31;14.28;79.82
76239;SHT30;65043;48.392;-4.472;2023-01-05T18:14:57;14.31;80.01
76239;SHT30;65043;48.392;-4.472;2023-01-05T18:17:22;14.31;79.71
76239;SHT30;65043;48.392;-4.472;2023-01-05T18:19:48;14.31;79.56